Time,TemperatureF,DewpointF,PressureIn,WindDirection,WindDirectionDegrees,WindSpeedMPH,WindSpeedGustMPH,Humidity,HourlyPrecipIn,Conditions,Clouds,dailyrainin,SolarRadiationWatts/m^2,SoftwareType,DateUTC
2013-09-21 00:01:00,69.0,67.2,29.93,SSE,156,0.0,0.0,94,0.00,SCT,,0.00,0.0,WeatherDisplay:10.37,2013-09-21 04:01:00,
2013-09-21 00:06:00,69.0,67.2,29.93,SSE,156,0.0,0.0,94,0.00,FEW,,0.00,0.0,WeatherDisplay:10.37,2013-09-21 04:06:00,
2013-09-21 00:11:00,68.9,67.1,29.93,SSE,156,0.0,0.0,94,0.00,FEW,,0.00,0.0,WeatherDisplay:10.37,2013-09-21 04:11:00,
2013-09-21 00:16:00,68.9,67.1,29.93,SSE,156,0.0,0.0,94,0.00,FEW,,0.00,0.0,WeatherDisplay:10.37,2013-09-21 04:16:00,
2013-09-21 00:21:00,68.9,67.4,29.93,SSE,156,0.0,0.0,95,0.00,FEW,,0.00,0.0,WeatherDisplay:10.37,2013-09-21 04:21:00,
2013-09-21 00:26:00,68.9,67.4,29.93,SSE,156,0.0,0.0,95,0.00,FEW,,0.00,0.0,WeatherDisplay:10.37,2013-09-21 04:26:00,
2013-09-21 00:31:00,68.9,67.4,29.93,SSE,156,0.0,0.0,95,0.00,FEW,,0.00,0.0,WeatherDisplay:10.37,2013-09-21 04:31:00,
2013-09-21 00:36:00,68.9,67.4,29.94,SSE,156,0.0,0.0,95,0.00,FEW,,0.00,0.0,WeatherDisplay:10.37,2013-09-21 04:36:00,
2013-09-21 00:41:00,68.9,67.4,29.94,SSE,156,0.0,0.0,95,0.00,FEW,,0.00,0.0,WeatherDisplay:10.37,2013-09-21 04:41:00,
2013-09-21 00:46:00,68.9,67.4,29.94,SSE,156,0.0,0.0,95,0.00,FEW,,0.00,0.0,WeatherDisplay:10.37,2013-09-21 04:46:00,
2013-09-21 00:51:00,68.8,67.3,29.94,SSE,156,0.0,0.0,95,0.00,FEW,,0.00,0.0,WeatherDisplay:10.37,2013-09-21 04:51:00,
2013-09-21 00:56:00,68.8,67.3,29.94,SSE,156,0.0,0.0,95,0.00,FEW,,0.00,0.0,WeatherDisplay:10.37,2013-09-21 04:56:00,
2013-09-21 01:01:00,68.7,67.2,29.94,SSE,156,0.0,0.0,95,0.00,FEW,,0.00,0.0,WeatherDisplay:10.37,2013-09-21 05:01:00,
2013-09-21 01:06:00,68.6,67.1,29.94,SSE,156,0.0,0.0,95,0.00,FEW,,0.00,0.0,WeatherDisplay:10.37,2013-09-21 05:06:00,
2013-09-21 01:11:00,68.6,67.1,29.94,SSE,156,0.0,0.0,95,0.00,FEW,,0.00,0.0,WeatherDisplay:10.37,2013-09-21 05:11:00,
2013-09-21 01:16:00,68.5,67.0,29.94,SSE,156,0.0,0.0,95,0.00,FEW,,0.00,0.0,WeatherDisplay:10.37,2013-09-21 05:16:00,
2013-09-21 01:21:00,68.4,66.9,29.94,SSE,156,0.0,0.0,95,0.00,FEW,,0.00,0.0,WeatherDisplay:10.37,2013-09-21 05:21:00,
2013-09-21 01:26:00,68.4,66.9,29.94,SSE,156,0.0,0.0,95,0.00,FEW,,0.00,0.0,WeatherDisplay:10.37,2013-09-21 05:26:00,
2013-09-21 01:31:00,68.3,66.8,29.94,SSE,155,0.0,0.0,95,0.00,FEW,,0.00,0.0,WeatherDisplay:10.37,2013-09-21 05:31:00,
2013-09-21 01:36:00,68.3,66.8,29.94,SSE,156,0.0,0.0,95,0.00,FEW,,0.00,0.0,WeatherDisplay:10.37,2013-09-21 05:36:00,
2013-09-21 01:41:00,68.3,66.8,29.94,SSE,156,0.0,0.0,95,0.00,FEW,,0.00,0.0,WeatherDisplay:10.37,2013-09-21 05:41:00,
2013-09-21 01:46:00,68.2,66.7,29.94,SSE,156,0.0,0.0,95,0.00,FEW,,0.00,0.0,WeatherDisplay:10.37,2013-09-21 05:46:00,
2013-09-21 01:51:00,68.2,66.7,29.93,SSE,156,0.0,0.0,95,0.00,FEW,,0.00,0.0,WeatherDisplay:10.37,2013-09-21 05:51:00,
2013-09-21 01:56:00,68.1,66.6,29.93,SSE,156,0.0,0.0,95,0.00,FEW,,0.00,0.0,WeatherDisplay:10.37,2013-09-21 05:56:00,
2013-09-21 02:01:00,68.1,66.6,29.93,SSE,156,0.0,0.0,95,0.00,FEW,,0.00,0.0,WeatherDisplay:10.37,2013-09-21 06:01:00,
2013-09-21 02:06:00,68.1,66.6,29.93,SSE,156,0.0,0.0,95,0.00,FEW,,0.00,0.0,WeatherDisplay:10.37,2013-09-21 06:06:00,
2013-09-21 02:11:00,68.1,66.6,29.93,SSE,156,0.0,0.0,95,0.00,FEW,,0.00,0.0,WeatherDisplay:10.37,2013-09-21 06:11:00,
2013-09-21 02:16:00,68.1,66.6,29.93,SSE,156,0.0,0.0,95,0.00,FEW,,0.00,0.0,WeatherDisplay:10.37,2013-09-21 06:16:00,
2013-09-21 02:21:00,68.1,66.6,29.92,SSE,156,0.0,0.0,95,0.00,FEW,,0.00,0.0,WeatherDisplay:10.37,2013-09-21 06:21:00,
2013-09-21 02:26:00,68.1,66.6,29.92,SSE,155,0.0,0.0,95,0.00,FEW,,0.00,0.0,WeatherDisplay:10.37,2013-09-21 06:26:00,
2013-09-21 02:31:00,68.0,66.5,29.92,SSE,156,0.0,0.0,95,0.00,FEW,,0.00,0.0,WeatherDisplay:10.37,2013-09-21 06:31:00,
2013-09-21 02:36:00,68.0,66.5,29.92,SSE,155,0.0,0.0,95,0.00,FEW,,0.00,0.0,WeatherDisplay:10.37,2013-09-21 06:36:00,
2013-09-21 02:41:00,68.0,66.8,29.92,SSE,156,0.0,0.0,96,0.00,FEW,,0.00,0.0,WeatherDisplay:10.37,2013-09-21 06:41:00,
2013-09-21 02:46:00,68.0,66.8,29.92,SSE,156,0.0,0.0,96,0.00,FEW,,0.00,0.0,WeatherDisplay:10.37,2013-09-21 06:46:00,
2013-09-21 02:52:00,68.0,66.8,29.92,SSE,155,0.0,0.0,96,0.00,FEW,,0.00,0.0,WeatherDisplay:10.37,2013-09-21 06:52:00,
2013-09-21 02:57:00,68.0,66.8,29.92,SSE,156,0.0,0.0,96,0.00,FEW,,0.00,0.0,WeatherDisplay:10.37,2013-09-21 06:57:00,
2013-09-21 03:02:00,68.0,66.8,29.91,SSE,156,0.0,0.0,96,0.00,FEW,,0.00,0.0,WeatherDisplay:10.37,2013-09-21 07:02:00,
2013-09-21 03:07:00,67.9,66.7,29.91,SSE,156,0.0,0.0,96,0.00,FEW,,0.00,0.0,WeatherDisplay:10.37,2013-09-21 07:07:00,
2013-09-21 03:12:00,67.9,66.7,29.91,SSE,156,0.0,0.0,96,0.00,FEW,,0.00,0.0,WeatherDisplay:10.37,2013-09-21 07:12:00,
2013-09-21 03:17:00,67.9,66.7,29.91,SSE,156,0.0,0.0,96,0.00,FEW,,0.00,0.0,WeatherDisplay:10.37,2013-09-21 07:17:00,
2013-09-21 03:22:00,67.8,66.6,29.91,SSE,156,0.0,0.0,96,0.00,FEW,,0.00,0.0,WeatherDisplay:10.37,2013-09-21 07:22:00,
2013-09-21 03:27:00,67.7,66.5,29.91,SSE,157,0.0,0.0,96,0.00,FEW,,0.00,0.0,WeatherDisplay:10.37,2013-09-21 07:27:00,
2013-09-21 03:32:00,67.7,66.5,29.90,SSE,156,0.0,0.0,96,0.00,FEW,,0.00,0.0,WeatherDisplay:10.37,2013-09-21 07:32:00,
2013-09-21 03:37:00,67.7,66.5,29.91,SSE,156,0.0,0.0,96,0.00,FEW,,0.00,0.0,WeatherDisplay:10.37,2013-09-21 07:37:00,
2013-09-21 03:42:00,67.8,66.6,29.91,SSE,156,0.0,0.0,96,0.00,FEW,,0.00,0.0,WeatherDisplay:10.37,2013-09-21 07:42:00,
2013-09-21 03:47:00,67.9,66.7,29.91,SSE,156,0.0,0.0,96,0.00,FEW,,0.00,0.0,WeatherDisplay:10.37,2013-09-21 07:47:00,
2013-09-21 03:52:00,67.9,66.7,29.90,SSE,156,0.0,0.0,96,0.00,FEW,,0.00,0.0,WeatherDisplay:10.37,2013-09-21 07:52:00,
2013-09-21 03:57:00,67.9,66.7,29.90,SSE,156,0.0,0.0,96,0.00,FEW,,0.00,0.0,WeatherDisplay:10.37,2013-09-21 07:57:00,
2013-09-21 04:02:00,67.9,66.7,29.90,SSE,156,0.0,0.0,96,0.00,FEW,,0.00,0.0,WeatherDisplay:10.37,2013-09-21 08:02:00,
2013-09-21 04:07:00,67.9,66.7,29.90,SSE,156,0.0,0.0,96,0.00,FEW,,0.00,0.0,WeatherDisplay:10.37,2013-09-21 08:07:00,
2013-09-21 04:12:00,67.9,66.7,29.89,SSE,156,0.0,0.0,96,0.00,FEW,,0.00,0.0,WeatherDisplay:10.37,2013-09-21 08:12:00,
2013-09-21 04:17:00,67.7,66.5,29.89,SSE,156,0.0,0.0,96,0.00,FEW,,0.00,0.0,WeatherDisplay:10.37,2013-09-21 08:17:00,
2013-09-21 04:22:00,67.6,66.4,29.89,SSE,156,0.0,0.0,96,0.00,FEW,,0.00,0.0,WeatherDisplay:10.37,2013-09-21 08:22:00,
2013-09-21 04:27:00,67.5,66.3,29.89,SSE,155,0.0,0.0,96,0.00,FEW,,0.00,0.0,WeatherDisplay:10.37,2013-09-21 08:27:00,
2013-09-21 04:32:00,67.5,66.3,29.89,SSE,156,0.0,0.0,96,0.00,FEW,,0.00,0.0,WeatherDisplay:10.37,2013-09-21 08:32:00,
2013-09-21 04:37:00,67.4,66.2,29.89,SSE,156,0.0,0.0,96,0.00,FEW,,0.00,0.0,WeatherDisplay:10.37,2013-09-21 08:37:00,
2013-09-21 04:42:00,67.4,66.2,29.89,SSE,156,0.0,0.0,96,0.00,FEW,,0.00,0.0,WeatherDisplay:10.37,2013-09-21 08:42:00,
2013-09-21 04:47:00,67.3,66.1,29.88,SSE,156,0.0,0.0,96,0.00,FEW,,0.00,0.0,WeatherDisplay:10.37,2013-09-21 08:47:00,
2013-09-21 04:52:00,67.3,66.1,29.88,SSE,156,0.0,0.0,96,0.00,FEW,,0.00,0.0,WeatherDisplay:10.37,2013-09-21 08:52:00,
2013-09-21 04:57:00,67.2,66.0,29.88,SSE,155,0.0,0.0,96,0.00,FEW,,0.00,0.0,WeatherDisplay:10.37,2013-09-21 08:57:00,
2013-09-21 05:02:00,67.2,66.0,29.88,SSE,156,0.0,0.0,96,0.00,FEW,,0.00,0.0,WeatherDisplay:10.37,2013-09-21 09:02:00,
2013-09-21 05:07:00,67.2,66.0,29.88,SSE,156,0.0,0.0,96,0.00,FEW,,0.00,0.0,WeatherDisplay:10.37,2013-09-21 09:07:00,
2013-09-21 05:12:00,67.1,65.9,29.88,SSE,156,0.0,0.0,96,0.00,FEW,,0.00,0.0,WeatherDisplay:10.37,2013-09-21 09:12:00,
2013-09-21 05:17:00,67.1,65.9,29.88,SSE,156,0.0,0.0,96,0.00,FEW,,0.00,0.0,WeatherDisplay:10.37,2013-09-21 09:17:00,
2013-09-21 05:22:00,67.1,65.9,29.88,SSE,156,0.0,0.0,96,0.00,FEW,,0.00,0.0,WeatherDisplay:10.37,2013-09-21 09:22:00,
2013-09-21 05:27:00,67.1,65.9,29.87,SSE,156,0.0,0.0,96,0.00,FEW,,0.00,0.0,WeatherDisplay:10.37,2013-09-21 09:27:00,
2013-09-21 05:32:00,67.0,65.8,29.87,SSE,156,0.0,0.0,96,0.00,FEW,,0.00,0.0,WeatherDisplay:10.37,2013-09-21 09:32:00,
2013-09-21 05:37:00,67.0,65.8,29.87,SSE,156,0.0,0.0,96,0.00,FEW,,0.00,0.0,WeatherDisplay:10.37,2013-09-21 09:37:00,
2013-09-21 05:42:00,67.0,65.8,29.87,SSE,156,0.0,0.0,96,0.00,FEW,,0.00,0.0,WeatherDisplay:10.37,2013-09-21 09:42:00,
2013-09-21 05:47:00,67.0,65.8,29.87,SSE,156,0.0,0.0,96,0.00,FEW,,0.00,0.0,WeatherDisplay:10.37,2013-09-21 09:47:00,
2013-09-21 05:52:00,67.0,65.8,29.87,SSE,156,0.0,0.0,96,0.00,FEW,,0.00,0.0,WeatherDisplay:10.37,2013-09-21 09:52:00,
2013-09-21 05:57:00,67.1,65.9,29.87,SSE,156,0.0,0.0,96,0.00,FEW,,0.00,0.0,WeatherDisplay:10.37,2013-09-21 09:57:00,
2013-09-21 06:02:00,67.0,65.8,29.87,SSE,156,0.0,0.0,96,0.00,FEW,,0.00,0.0,WeatherDisplay:10.37,2013-09-21 10:02:00,
2013-09-21 06:07:00,67.0,65.8,29.87,SSE,155,0.0,0.0,96,0.00,SCT,,0.00,0.0,WeatherDisplay:10.37,2013-09-21 10:07:00,
2013-09-21 06:12:00,66.9,65.7,29.86,SSE,156,0.0,0.0,96,0.00,SCT,,0.00,0.0,WeatherDisplay:10.37,2013-09-21 10:12:00,
2013-09-21 06:17:00,66.9,65.7,29.86,SSE,156,0.0,0.0,96,0.00,SCT,,0.00,0.0,WeatherDisplay:10.37,2013-09-21 10:17:00,
2013-09-21 06:22:00,66.8,65.6,29.86,SSE,156,0.0,0.0,96,0.00,SCT,,0.00,0.0,WeatherDisplay:10.37,2013-09-21 10:22:00,
2013-09-21 06:27:00,66.9,65.7,29.86,SSE,156,0.0,0.0,96,0.00,SCT,,0.00,0.0,WeatherDisplay:10.37,2013-09-21 10:27:00,
2013-09-21 06:32:00,66.9,65.7,29.86,SSE,156,0.0,0.0,96,0.00,SCT,,0.00,0.0,WeatherDisplay:10.37,2013-09-21 10:32:00,
2013-09-21 06:37:00,67.0,65.8,29.86,SSE,156,0.0,0.0,96,0.00,SCT,,0.00,0.0,WeatherDisplay:10.37,2013-09-21 10:37:00,
2013-09-21 06:42:00,67.0,65.8,29.86,SSE,156,0.0,0.0,96,0.00,SCT,,0.00,0.0,WeatherDisplay:10.37,2013-09-21 10:42:00,
2013-09-21 06:47:00,67.0,65.8,29.86,SSE,156,0.0,0.0,96,0.00,SCT,,0.00,0.0,WeatherDisplay:10.37,2013-09-21 10:47:00,
2013-09-21 06:52:00,67.0,65.8,29.86,SSE,156,0.0,0.0,96,0.00,SCT,,0.00,0.0,WeatherDisplay:10.37,2013-09-21 10:52:00,
2013-09-21 06:57:00,67.0,65.8,29.86,SSE,156,0.0,0.0,96,0.00,SCT,,0.00,0.0,WeatherDisplay:10.37,2013-09-21 10:57:00,
2013-09-21 07:02:00,66.9,65.7,29.86,SSE,156,0.0,0.0,96,0.00,SCT,,0.00,0.0,WeatherDisplay:10.37,2013-09-21 11:02:00,
2013-09-21 07:07:00,66.9,65.7,29.86,SSE,156,0.0,0.0,96,0.00,SCT,,0.00,0.0,WeatherDisplay:10.37,2013-09-21 11:07:00,
2013-09-21 07:12:00,66.9,65.7,29.86,SSE,156,0.0,0.0,96,0.00,SCT,,0.00,0.0,WeatherDisplay:10.37,2013-09-21 11:12:00,
2013-09-21 07:17:00,66.9,65.7,29.87,SSE,155,0.0,0.0,96,0.00,SCT,,0.00,0.0,WeatherDisplay:10.37,2013-09-21 11:17:00,
2013-09-21 07:22:00,66.9,65.7,29.87,SSE,157,0.0,0.0,96,0.00,SCT,,0.00,0.0,WeatherDisplay:10.37,2013-09-21 11:22:00,
2013-09-21 07:27:00,66.9,65.7,29.87,SSE,156,0.0,0.0,96,0.00,SCT,,0.00,0.0,WeatherDisplay:10.37,2013-09-21 11:27:00,
2013-09-21 07:32:00,66.9,65.7,29.87,SSE,156,0.0,0.0,96,0.00,SCT,,0.00,0.0,WeatherDisplay:10.37,2013-09-21 11:32:00,
2013-09-21 07:37:00,67.0,65.8,29.87,SSE,156,0.0,0.0,96,0.00,SCT,,0.00,0.0,WeatherDisplay:10.37,2013-09-21 11:37:00,
2013-09-21 07:42:00,67.0,65.8,29.87,SSE,156,0.0,0.0,96,0.00,SCT,,0.00,0.0,WeatherDisplay:10.37,2013-09-21 11:42:00,
2013-09-21 07:47:00,67.1,65.9,29.87,SSE,156,0.0,0.0,96,0.00,SCT,,0.00,0.0,WeatherDisplay:10.37,2013-09-21 11:47:00,
2013-09-21 07:52:00,67.2,66.0,29.87,SSE,156,0.0,0.0,96,0.00,SCT,,0.00,0.0,WeatherDisplay:10.37,2013-09-21 11:52:00,
2013-09-21 07:57:00,67.2,66.0,29.87,SSE,155,0.0,0.0,96,0.00,SCT,,0.00,0.0,WeatherDisplay:10.37,2013-09-21 11:57:00,
2013-09-21 08:03:00,67.3,66.1,29.87,SSE,156,0.0,0.0,96,0.00,SCT,,0.00,0.0,WeatherDisplay:10.37,2013-09-21 12:03:00,
2013-09-21 08:08:00,67.5,66.3,29.88,SSE,156,0.0,0.0,96,0.00,SCT,,0.00,0.0,WeatherDisplay:10.37,2013-09-21 12:08:00,
2013-09-21 08:13:00,67.9,66.7,29.88,SSE,156,0.0,0.0,96,0.00,SCT,,0.00,0.0,WeatherDisplay:10.37,2013-09-21 12:13:00,
2013-09-21 08:18:00,68.2,67.0,29.88,SSE,156,0.0,0.0,96,0.00,SCT,,0.00,0.0,WeatherDisplay:10.37,2013-09-21 12:18:00,
2013-09-21 08:23:00,68.5,67.6,29.88,SSE,156,0.0,0.0,97,0.00,SCT,,0.00,0.0,WeatherDisplay:10.37,2013-09-21 12:23:00,
2013-09-21 08:28:00,68.9,67.7,29.88,SSE,156,0.0,0.0,96,0.00,SCT,,0.00,0.0,WeatherDisplay:10.37,2013-09-21 12:28:00,
2013-09-21 08:33:00,69.3,68.4,29.88,SSE,156,0.0,0.0,97,0.00,SCT,,0.00,0.0,WeatherDisplay:10.37,2013-09-21 12:33:00,
2013-09-21 08:38:00,69.9,69.0,29.88,SSE,156,0.0,0.0,97,0.00,SCT,,0.00,0.0,WeatherDisplay:10.37,2013-09-21 12:38:00,
2013-09-21 08:43:00,70.9,70.0,29.88,SSE,155,0.0,0.0,97,0.00,SCT,,0.00,0.0,WeatherDisplay:10.37,2013-09-21 12:43:00,
2013-09-21 08:48:00,72.1,71.2,29.88,SSE,156,0.0,0.0,97,0.00,SCT,,0.00,0.0,WeatherDisplay:10.37,2013-09-21 12:48:00,
2013-09-21 08:53:00,73.0,72.1,29.88,SSE,156,2.3,2.3,97,0.00,SCT,,0.00,0.0,WeatherDisplay:10.37,2013-09-21 12:53:00,
2013-09-21 08:58:00,73.8,72.9,29.88,SSE,156,1.2,1.2,97,0.00,SCT,,0.00,0.0,WeatherDisplay:10.37,2013-09-21 12:58:00,
2013-09-21 09:03:00,74.5,73.6,29.88,SSE,157,0.0,0.0,97,0.00,SCT,,0.00,0.0,WeatherDisplay:10.37,2013-09-21 13:03:00,
2013-09-21 09:08:00,75.0,74.1,29.88,SSE,156,0.0,0.0,97,0.00,SCT,,0.00,0.0,WeatherDisplay:10.37,2013-09-21 13:08:00,
2013-09-21 09:13:00,75.7,74.5,29.88,SSE,156,2.0,2.0,96,0.00,SCT,,0.00,0.0,WeatherDisplay:10.37,2013-09-21 13:13:00,
2013-09-21 09:18:00,76.9,74.4,29.88,SSE,165,0.0,0.0,92,0.00,SCT,,0.00,0.0,WeatherDisplay:10.37,2013-09-21 13:18:00,
2013-09-21 09:23:00,77.9,74.4,29.89,ESE,106,2.3,2.3,89,0.00,SCT,,0.00,0.0,WeatherDisplay:10.37,2013-09-21 13:23:00,
2013-09-21 09:28:00,78.7,74.5,29.89,SSE,164,4.0,4.0,87,0.00,SCT,,0.00,0.0,WeatherDisplay:10.37,2013-09-21 13:28:00,
2013-09-21 09:33:00,79.5,74.2,29.89,SSE,159,1.2,1.2,84,0.00,SCT,,0.00,0.0,WeatherDisplay:10.37,2013-09-21 13:33:00,
2013-09-21 09:38:00,80.1,74.5,29.89,SSE,158,0.0,0.0,83,0.00,SCT,,0.00,0.0,WeatherDisplay:10.37,2013-09-21 13:38:00,
2013-09-21 09:43:00,80.4,73.7,29.88,South,174,8.1,8.1,80,0.00,SCT,,0.00,0.0,WeatherDisplay:10.37,2013-09-21 13:43:00,
2013-09-21 09:48:00,80.5,73.8,29.88,South,181,3.5,3.5,80,0.00,SCT,,0.00,0.0,WeatherDisplay:10.37,2013-09-21 13:48:00,
2013-09-21 09:53:00,80.5,73.8,29.88,SSE,168,1.0,1.0,80,0.00,SCT,,0.00,0.0,WeatherDisplay:10.37,2013-09-21 13:53:00,
2013-09-21 09:58:00,80.5,73.0,29.88,SSE,168,1.2,1.2,78,0.00,SCT,,0.00,0.0,WeatherDisplay:10.37,2013-09-21 13:58:00,
2013-09-21 10:03:00,80.9,73.4,29.88,ESE,109,3.5,3.5,78,0.00,SCT,,0.00,0.0,WeatherDisplay:10.37,2013-09-21 14:03:00,
2013-09-21 10:08:00,81.5,73.2,29.88,South,191,2.3,2.3,76,0.00,SCT,,0.00,0.0,WeatherDisplay:10.37,2013-09-21 14:08:00,
2013-09-21 10:13:00,82.0,73.3,29.88,SSW,192,1.2,1.2,75,0.00,SCT,,0.00,0.0,WeatherDisplay:10.37,2013-09-21 14:13:00,
2013-09-21 10:18:00,82.5,73.4,29.88,SSW,193,1.2,1.2,74,0.00,SCT,,0.00,0.0,WeatherDisplay:10.37,2013-09-21 14:18:00,
2013-09-21 10:23:00,82.9,73.4,29.88,SSE,154,3.5,3.5,73,0.00,SCT,,0.00,0.0,WeatherDisplay:10.37,2013-09-21 14:23:00,
2013-09-21 10:28:00,83.4,73.0,29.87,SSW,193,1.2,1.2,71,0.00,SCT,,0.00,0.0,WeatherDisplay:10.37,2013-09-21 14:28:00,
2013-09-21 10:33:00,83.6,72.8,29.87,SSW,195,4.6,4.6,70,0.00,SCT,,0.00,0.0,WeatherDisplay:10.37,2013-09-21 14:33:00,
2013-09-21 10:38:00,83.8,73.0,29.87,SSW,195,2.3,2.3,70,0.00,SCT,,0.00,0.0,WeatherDisplay:10.37,2013-09-21 14:38:00,
2013-09-21 10:43:00,83.9,72.6,29.87,SE,135,4.6,4.6,69,0.00,SCT,,0.00,0.0,WeatherDisplay:10.37,2013-09-21 14:43:00,
2013-09-21 10:48:00,84.1,72.4,29.87,SW,225,8.1,8.1,68,0.00,SCT,,0.00,0.0,WeatherDisplay:10.37,2013-09-21 14:48:00,
2013-09-21 10:53:00,84.3,73.0,29.87,SSE,158,4.6,4.6,69,0.00,SCT,,0.00,0.0,WeatherDisplay:10.37,2013-09-21 14:53:00,
2013-09-21 10:58:00,84.1,72.0,29.87,SE,128,3.5,3.5,67,0.00,SCT,,0.00,0.0,WeatherDisplay:10.37,2013-09-21 14:58:00,
2013-09-21 11:03:00,83.7,72.4,29.87,South,174,2.3,2.3,69,0.00,BKN,,0.00,0.0,WeatherDisplay:10.37,2013-09-21 15:03:00,
2013-09-21 11:08:00,83.6,72.8,29.87,South,184,3.5,3.5,70,0.00,BKN,,0.00,0.0,WeatherDisplay:10.37,2013-09-21 15:08:00,
2013-09-21 11:13:00,83.8,73.0,29.87,SW,214,2.3,2.3,70,0.00,BKN,,0.00,0.0,WeatherDisplay:10.37,2013-09-21 15:13:00,
2013-09-21 11:18:00,83.9,72.6,29.87,SSE,152,3.5,3.5,69,0.00,BKN,,0.00,0.0,WeatherDisplay:10.37,2013-09-21 15:18:00,
2013-09-21 11:23:00,83.9,72.2,29.87,SSE,152,2.3,2.3,68,0.00,BKN,,0.00,0.0,WeatherDisplay:10.37,2013-09-21 15:23:00,
2013-09-21 11:28:00,84.0,71.9,29.86,South,182,8.1,8.1,67,0.00,BKN,,0.00,0.0,WeatherDisplay:10.37,2013-09-21 15:28:00,
2013-09-21 11:33:00,84.2,72.5,29.86,SSW,193,3.5,3.5,68,0.00,BKN,,0.00,0.0,WeatherDisplay:10.37,2013-09-21 15:33:00,
2013-09-21 11:38:00,84.4,72.2,29.86,SSW,193,1.2,1.2,67,0.00,BKN,,0.00,0.0,WeatherDisplay:10.37,2013-09-21 15:38:00,
2013-09-21 11:43:00,84.5,71.9,29.86,ESE,116,1.2,1.2,66,0.00,BKN,,0.00,0.0,WeatherDisplay:10.37,2013-09-21 15:43:00,
2013-09-21 11:48:00,84.8,73.1,29.86,SSE,153,3.5,3.5,68,0.00,BKN,,0.00,0.0,WeatherDisplay:10.37,2013-09-21 15:48:00,
2013-09-21 11:53:00,85.2,72.6,29.86,ESE,112,3.5,3.5,66,0.00,BKN,,0.00,0.0,WeatherDisplay:10.37,2013-09-21 15:53:00,
2013-09-21 11:58:00,85.8,72.7,29.86,SSW,195,13.8,13.8,65,0.00,BKN,,0.00,0.0,WeatherDisplay:10.37,2013-09-21 15:58:00,
2013-09-21 12:03:00,86.2,73.0,29.85,NW,314,3.5,3.5,65,0.00,SCT,,0.00,0.0,WeatherDisplay:10.37,2013-09-21 16:03:00,
2013-09-21 12:08:00,86.3,73.1,29.85,ESE,117,9.2,9.2,65,0.00,SCT,,0.00,0.0,WeatherDisplay:10.37,2013-09-21 16:08:00,
2013-09-21 12:13:00,86.8,72.7,29.85,ESE,122,4.6,4.6,63,0.00,SCT,,0.00,0.0,WeatherDisplay:10.37,2013-09-21 16:13:00,
2013-09-21 12:18:00,87.2,72.6,29.85,SSE,157,10.0,10.0,62,0.00,SCT,,0.00,0.0,WeatherDisplay:10.37,2013-09-21 16:18:00,
2013-09-21 12:23:00,87.0,72.4,29.85,SE,144,2.3,2.3,62,0.00,SCT,,0.00,0.0,WeatherDisplay:10.37,2013-09-21 16:23:00,
2013-09-21 12:28:00,86.9,72.8,29.84,SW,227,9.2,9.2,63,0.00,SCT,,0.00,0.0,WeatherDisplay:10.37,2013-09-21 16:28:00,
2013-09-21 12:33:00,86.9,72.3,29.84,SW,222,11.5,11.5,62,0.00,SCT,,0.00,0.0,WeatherDisplay:10.37,2013-09-21 16:33:00,
2013-09-21 12:38:00,87.0,72.9,29.85,South,176,2.3,2.3,63,0.00,SCT,,0.00,0.0,WeatherDisplay:10.37,2013-09-21 16:38:00,
2013-09-21 12:43:00,87.1,73.0,29.84,SSE,147,5.8,5.8,63,0.00,SCT,,0.00,0.0,WeatherDisplay:10.37,2013-09-21 16:43:00,
2013-09-21 12:48:00,87.1,72.5,29.84,SSW,196,8.1,8.1,62,0.00,SCT,,0.00,0.0,WeatherDisplay:10.37,2013-09-21 16:48:00,
2013-09-21 12:53:00,87.1,73.0,29.84,SSE,160,9.2,9.2,63,0.00,SCT,,0.00,0.0,WeatherDisplay:10.37,2013-09-21 16:53:00,
2013-09-21 12:58:00,87.2,73.1,29.84,South,174,3.5,3.5,63,0.00,SCT,,0.00,0.0,WeatherDisplay:10.37,2013-09-21 16:58:00,
2013-09-21 13:03:00,87.1,73.0,29.84,SE,139,5.8,5.8,63,0.00,BKN,,0.00,0.0,WeatherDisplay:10.37,2013-09-21 17:03:00,
2013-09-21 13:08:00,87.1,73.0,29.83,SE,127,5.8,5.8,63,0.00,BKN,,0.00,0.0,WeatherDisplay:10.37,2013-09-21 17:08:00,
2013-09-21 13:14:00,87.0,72.4,29.83,SE,138,3.5,3.5,62,0.00,BKN,,0.00,0.0,WeatherDisplay:10.37,2013-09-21 17:14:00,
2013-09-21 13:19:00,87.4,72.3,29.83,SSE,159,10.4,10.4,61,0.00,BKN,,0.00,0.0,WeatherDisplay:10.37,2013-09-21 17:19:00,
2013-09-21 13:24:00,87.7,73.1,29.83,SSW,204,2.3,2.3,62,0.00,BKN,,0.00,0.0,WeatherDisplay:10.37,2013-09-21 17:24:00,
2013-09-21 13:29:00,87.8,72.7,29.83,ENE,68,3.5,3.5,61,0.00,BKN,,0.00,0.0,WeatherDisplay:10.37,2013-09-21 17:29:00,
2013-09-21 13:34:00,87.9,73.3,29.82,SW,218,2.3,2.3,62,0.00,BKN,,0.00,0.0,WeatherDisplay:10.37,2013-09-21 17:34:00,
2013-09-21 13:39:00,87.7,73.1,29.82,WSW,253,2.3,2.3,62,0.00,BKN,,0.00,0.0,WeatherDisplay:10.37,2013-09-21 17:39:00,
2013-09-21 13:44:00,87.2,73.1,29.81,SSE,168,4.6,4.6,63,0.00,BKN,,0.00,0.0,WeatherDisplay:10.37,2013-09-21 17:44:00,
2013-09-21 13:49:00,87.0,72.4,29.81,SW,216,3.5,3.5,62,0.00,BKN,,0.00,0.0,WeatherDisplay:10.37,2013-09-21 17:49:00,
2013-09-21 13:54:00,87.0,72.4,29.81,SSW,199,3.5,3.5,62,0.00,BKN,,0.00,0.0,WeatherDisplay:10.37,2013-09-21 17:54:00,
2013-09-21 13:59:00,87.0,72.9,29.81,SW,216,2.3,2.3,63,0.00,BKN,,0.00,0.0,WeatherDisplay:10.37,2013-09-21 17:59:00,
2013-09-21 14:04:00,87.4,72.8,29.80,SSW,192,3.5,3.5,62,0.00,BKN,,0.00,0.0,WeatherDisplay:10.37,2013-09-21 18:04:00,
2013-09-21 14:09:00,87.4,72.3,29.80,South,190,4.6,4.6,61,0.00,BKN,,0.00,0.0,WeatherDisplay:10.37,2013-09-21 18:09:00,
2013-09-21 14:14:00,87.3,72.7,29.80,SSE,167,3.5,3.5,62,0.00,BKN,,0.00,0.0,WeatherDisplay:10.37,2013-09-21 18:14:00,
2013-09-21 14:19:00,87.3,73.2,29.80,SSW,209,2.3,2.3,63,0.00,BKN,,0.00,0.0,WeatherDisplay:10.37,2013-09-21 18:19:00,
2013-09-21 14:24:00,87.4,71.8,29.80,SSW,210,9.2,9.2,60,0.00,BKN,,0.00,0.0,WeatherDisplay:10.37,2013-09-21 18:24:00,
2013-09-21 14:29:00,87.4,73.3,29.80,SSE,159,4.6,4.6,63,0.00,BKN,,0.00,0.0,WeatherDisplay:10.37,2013-09-21 18:29:00,
2013-09-21 14:34:00,87.6,73.4,29.80,NE,42,3.5,3.5,63,0.00,BKN,,0.00,0.0,WeatherDisplay:10.37,2013-09-21 18:34:00,
2013-09-21 14:39:00,87.4,72.3,29.79,SSE,161,6.9,6.9,61,0.00,BKN,,0.00,0.0,WeatherDisplay:10.37,2013-09-21 18:39:00,
2013-09-21 14:44:00,86.8,73.6,29.79,SSE,150,1.2,1.2,65,0.00,BKN,,0.00,0.0,WeatherDisplay:10.37,2013-09-21 18:44:00,
2013-09-21 14:49:00,86.7,73.5,29.79,SSE,155,5.8,5.8,65,0.00,BKN,,0.00,0.0,WeatherDisplay:10.37,2013-09-21 18:49:00,
2013-09-21 14:54:00,87.1,73.0,29.78,SW,229,11.5,11.5,63,0.00,BKN,,0.00,0.0,WeatherDisplay:10.37,2013-09-21 18:54:00,
2013-09-21 14:59:00,87.3,72.7,29.78,South,179,3.5,3.5,62,0.00,BKN,,0.00,0.0,WeatherDisplay:10.37,2013-09-21 18:59:00,
2013-09-21 15:04:00,87.3,72.7,29.78,SE,139,4.6,4.6,62,0.00,BKN,,0.00,0.0,WeatherDisplay:10.37,2013-09-21 19:04:00,
2013-09-21 15:09:00,87.3,72.7,29.78,SSW,195,1.2,1.2,62,0.00,BKN,,0.00,0.0,WeatherDisplay:10.37,2013-09-21 19:09:00,
2013-09-21 15:14:00,87.5,73.8,29.78,SSW,207,5.8,5.8,64,0.00,BKN,,0.00,0.0,WeatherDisplay:10.37,2013-09-21 19:14:00,
2013-09-21 15:19:00,87.4,72.8,29.78,ESE,109,6.9,6.9,62,0.00,BKN,,0.00,0.0,WeatherDisplay:10.37,2013-09-21 19:19:00,
2013-09-21 15:24:00,86.7,72.6,29.77,SSE,164,5.8,5.8,63,0.00,BKN,,0.00,0.0,WeatherDisplay:10.37,2013-09-21 19:24:00,
2013-09-21 15:29:00,86.3,73.1,29.77,SSW,192,5.8,5.8,65,0.00,BKN,,0.00,0.0,WeatherDisplay:10.37,2013-09-21 19:29:00,
2013-09-21 15:34:00,85.9,72.8,29.77,SE,140,3.5,3.5,65,0.00,BKN,,0.00,0.0,WeatherDisplay:10.37,2013-09-21 19:34:00,
2013-09-21 15:39:00,85.4,73.2,29.77,SW,215,8.1,8.1,67,0.00,BKN,,0.00,0.0,WeatherDisplay:10.37,2013-09-21 19:39:00,
2013-09-21 15:44:00,84.9,72.7,29.77,South,178,3.5,3.5,67,0.00,BKN,,0.00,0.0,WeatherDisplay:10.37,2013-09-21 19:44:00,
2013-09-21 15:49:00,84.6,72.9,29.77,South,183,1.2,1.2,68,0.00,BKN,,0.00,0.0,WeatherDisplay:10.37,2013-09-21 19:49:00,
2013-09-21 15:54:00,84.4,73.1,29.77,SSW,195,2.3,2.3,69,0.00,BKN,,0.00,0.0,WeatherDisplay:10.37,2013-09-21 19:54:00,
2013-09-21 15:59:00,84.1,73.3,29.77,SE,143,5.8,5.8,70,0.00,BKN,,0.00,0.0,WeatherDisplay:10.37,2013-09-21 19:59:00,
2013-09-21 16:04:00,84.1,73.3,29.77,SSW,212,4.6,4.6,70,0.00,BKN,,0.00,0.0,WeatherDisplay:10.37,2013-09-21 20:04:00,
2013-09-21 16:09:00,84.0,73.2,29.77,SW,236,2.3,2.3,70,0.00,BKN,,0.00,0.0,WeatherDisplay:10.37,2013-09-21 20:09:00,
2013-09-21 16:14:00,83.8,73.0,29.77,SW,220,2.3,2.3,70,0.00,BKN,,0.00,0.0,WeatherDisplay:10.37,2013-09-21 20:14:00,
2013-09-21 16:19:00,83.5,73.1,29.76,South,188,2.3,2.3,71,0.00,BKN,,0.00,0.0,WeatherDisplay:10.37,2013-09-21 20:19:00,
2013-09-21 16:24:00,83.3,72.5,29.76,SW,228,4.6,4.6,70,0.00,BKN,,0.00,0.0,WeatherDisplay:10.37,2013-09-21 20:24:00,
2013-09-21 16:29:00,83.1,72.7,29.76,SSE,154,3.5,3.5,71,0.00,BKN,,0.00,0.0,WeatherDisplay:10.37,2013-09-21 20:29:00,
2013-09-21 16:34:00,82.9,73.4,29.76,ESE,118,1.2,1.2,73,0.00,BKN,,0.00,0.0,WeatherDisplay:10.37,2013-09-21 20:34:00,
2013-09-21 16:39:00,82.8,73.3,29.76,ESE,111,2.3,2.3,73,0.00,BKN,,0.00,0.0,WeatherDisplay:10.37,2013-09-21 20:39:00,
2013-09-21 16:44:00,82.6,73.5,29.76,South,189,1.2,0.0,74,0.00,BKN,,0.00,0.0,WeatherDisplay:10.37,2013-09-21 20:44:00,
2013-09-21 16:49:00,82.4,72.9,29.76,SW,235,5.8,5.8,73,0.00,BKN,,0.00,0.0,WeatherDisplay:10.37,2013-09-21 20:49:00,
2013-09-21 16:54:00,82.3,73.2,29.76,South,170,3.5,3.5,74,0.00,BKN,,0.00,0.0,WeatherDisplay:10.37,2013-09-21 20:54:00,
2013-09-21 16:59:00,82.0,72.5,29.75,South,172,3.5,0.0,73,0.00,BKN,,0.00,0.0,WeatherDisplay:10.37,2013-09-21 20:59:00,
2013-09-21 17:04:00,81.8,72.3,29.75,SSE,166,6.0,6.0,73,0.00,OVC,,0.00,0.0,WeatherDisplay:10.37,2013-09-21 21:04:00,
2013-09-21 17:09:00,81.7,73.0,29.75,SSE,157,2.3,2.3,75,0.00,OVC,,0.00,0.0,WeatherDisplay:10.37,2013-09-21 21:09:00,
2013-09-21 17:14:00,81.4,72.7,29.75,SE,141,1.2,1.2,75,0.00,OVC,,0.00,0.0,WeatherDisplay:10.37,2013-09-21 21:14:00,
2013-09-21 17:19:00,81.2,72.9,29.75,SSE,149,2.3,2.3,76,0.00,OVC,,0.00,0.0,WeatherDisplay:10.37,2013-09-21 21:19:00,
2013-09-21 17:24:00,81.1,72.8,29.75,SSE,149,2.3,2.3,76,0.00,OVC,,0.00,0.0,WeatherDisplay:10.37,2013-09-21 21:24:00,
2013-09-21 17:29:00,81.0,73.1,29.75,SSE,168,1.2,1.2,77,0.00,OVC,,0.00,0.0,WeatherDisplay:10.37,2013-09-21 21:29:00,
2013-09-21 17:34:00,81.0,73.1,29.75,SSE,150,1.0,0.0,77,0.00,OVC,,0.00,0.0,WeatherDisplay:10.37,2013-09-21 21:34:00,
2013-09-21 17:39:00,81.0,73.1,29.75,SSE,152,2.3,2.3,77,0.00,OVC,,0.00,0.0,WeatherDisplay:10.37,2013-09-21 21:39:00,
2013-09-21 17:44:00,80.9,72.6,29.75,SSE,159,3.5,3.5,76,0.00,OVC,,0.00,0.0,WeatherDisplay:10.37,2013-09-21 21:44:00,
2013-09-21 17:49:00,80.8,72.5,29.75,SE,141,3.5,3.5,76,0.00,OVC,,0.00,0.0,WeatherDisplay:10.37,2013-09-21 21:49:00,
2013-09-21 17:54:00,80.7,72.4,29.75,ENE,75,2.3,2.3,76,0.00,OVC,,0.00,0.0,WeatherDisplay:10.37,2013-09-21 21:54:00,
2013-09-21 17:59:00,80.6,72.3,29.75,SE,142,2.3,2.3,76,0.00,OVC,,0.00,0.0,WeatherDisplay:10.37,2013-09-21 21:59:00,
2013-09-21 18:04:00,80.5,72.6,29.75,SSE,160,4.6,4.6,77,0.00,OVC,,0.00,0.0,WeatherDisplay:10.37,2013-09-21 22:04:00,
2013-09-21 18:09:00,80.4,72.1,29.75,East,97,1.2,1.2,76,0.00,OVC,,0.00,0.0,WeatherDisplay:10.37,2013-09-21 22:09:00,
2013-09-21 18:14:00,80.3,72.4,29.75,SE,135,4.6,4.6,77,0.00,OVC,,0.00,0.0,WeatherDisplay:10.37,2013-09-21 22:14:00,
2013-09-21 18:19:00,80.2,72.3,29.75,South,175,3.5,3.5,77,0.00,OVC,,0.00,0.0,WeatherDisplay:10.37,2013-09-21 22:19:00,
2013-09-21 18:24:00,80.0,72.5,29.75,SE,141,3.5,3.5,78,0.00,OVC,,0.00,0.0,WeatherDisplay:10.37,2013-09-21 22:24:00,
2013-09-21 18:29:00,79.9,72.4,29.75,ESE,116,5.8,5.8,78,0.00,OVC,,0.00,0.0,WeatherDisplay:10.37,2013-09-21 22:29:00,
2013-09-21 18:34:00,79.8,72.7,29.75,South,174,3.5,3.5,79,0.00,OVC,,0.00,0.0,WeatherDisplay:10.37,2013-09-21 22:34:00,
2013-09-21 18:39:00,79.6,72.5,29.74,South,191,8.1,8.1,79,0.00,OVC,,0.00,0.0,WeatherDisplay:10.37,2013-09-21 22:39:00,
2013-09-21 18:44:00,79.5,72.4,29.75,SE,142,3.5,3.5,79,0.00,OVC,,0.00,0.0,WeatherDisplay:10.37,2013-09-21 22:44:00,
2013-09-21 18:49:00,79.4,72.3,29.74,South,189,8.1,8.1,79,0.00,OVC,,0.00,0.0,WeatherDisplay:10.37,2013-09-21 22:49:00,
2013-09-21 18:54:00,79.3,72.6,29.74,SSE,168,8.1,8.1,80,0.00,OVC,,0.00,0.0,WeatherDisplay:10.37,2013-09-21 22:54:00,
2013-09-21 19:00:00,79.2,72.5,29.75,South,172,6.9,6.9,80,0.00,OVC,,0.00,0.0,WeatherDisplay:10.37,2013-09-21 23:00:00,
2013-09-21 19:05:00,79.1,72.8,29.74,South,182,2.3,2.3,81,0.00,OVC,,0.00,0.0,WeatherDisplay:10.37,2013-09-21 23:05:00,
2013-09-21 19:10:00,79.1,72.8,29.74,South,174,5.8,5.8,81,0.00,OVC,,0.00,0.0,WeatherDisplay:10.37,2013-09-21 23:10:00,
2013-09-21 19:15:00,79.0,73.0,29.74,SSE,158,4.6,4.6,82,0.00,OVC,,0.00,0.0,WeatherDisplay:10.37,2013-09-21 23:15:00,
2013-09-21 19:20:00,78.9,72.9,29.74,SE,145,3.5,3.5,82,0.00,OVC,,0.00,0.0,WeatherDisplay:10.37,2013-09-21 23:20:00,
2013-09-21 19:25:00,78.8,72.8,29.74,SSE,158,2.3,2.3,82,0.00,OVC,,0.00,0.0,WeatherDisplay:10.37,2013-09-21 23:25:00,
2013-09-21 19:30:00,78.7,73.1,29.74,South,173,2.3,2.3,83,0.00,OVC,,0.00,0.0,WeatherDisplay:10.37,2013-09-21 23:30:00,
2013-09-21 19:35:00,78.7,73.1,29.74,SSE,147,1.2,1.2,83,0.00,OVC,,0.00,0.0,WeatherDisplay:10.37,2013-09-21 23:35:00,
2013-09-21 19:40:00,78.6,73.0,29.74,SE,139,8.1,8.1,83,0.00,OVC,,0.00,0.0,WeatherDisplay:10.37,2013-09-21 23:40:00,
2013-09-21 19:45:00,78.5,72.9,29.74,South,174,4.6,4.6,83,0.00,OVC,,0.00,0.0,WeatherDisplay:10.37,2013-09-21 23:45:00,
2013-09-21 19:50:00,78.4,72.8,29.74,South,190,8.1,8.1,83,0.00,OVC,,0.00,0.0,WeatherDisplay:10.37,2013-09-21 23:50:00,
2013-09-21 19:55:00,78.4,72.8,29.74,ESE,120,2.3,0.0,83,0.00,OVC,,0.00,0.0,WeatherDisplay:10.37,2013-09-21 23:55:00,
2013-09-21 20:00:00,78.3,72.7,29.74,SSE,165,2.3,2.3,83,0.00,OVC,,0.00,0.0,WeatherDisplay:10.37,2013-09-22 00:00:00,
2013-09-21 20:05:00,78.2,72.6,29.74,South,174,6.9,6.9,83,0.00,OVC,,0.00,0.0,WeatherDisplay:10.37,2013-09-22 00:05:00,
2013-09-21 20:10:00,78.2,72.6,29.74,South,181,3.5,3.5,83,0.00,OVC,,0.00,0.0,WeatherDisplay:10.37,2013-09-22 00:10:00,
2013-09-21 20:15:00,78.2,72.6,29.74,SSE,159,5.8,5.8,83,0.00,OVC,,0.00,0.0,WeatherDisplay:10.37,2013-09-22 00:15:00,
2013-09-21 20:20:00,78.2,72.6,29.74,SSE,152,5.8,5.8,83,0.00,OVC,,0.00,0.0,WeatherDisplay:10.37,2013-09-22 00:20:00,
2013-09-21 20:25:00,78.2,72.6,29.74,SE,146,8.1,8.1,83,0.00,OVC,,0.00,0.0,WeatherDisplay:10.37,2013-09-22 00:25:00,
2013-09-21 20:30:00,78.2,72.6,29.74,SSE,152,9.2,9.2,83,0.00,OVC,,0.00,0.0,WeatherDisplay:10.37,2013-09-22 00:30:00,
2013-09-21 20:35:00,78.1,72.5,29.74,South,186,4.6,4.6,83,0.00,OVC,,0.00,0.0,WeatherDisplay:10.37,2013-09-22 00:35:00,
2013-09-21 20:40:00,78.2,72.6,29.74,SSE,149,3.5,3.5,83,0.00,OVC,,0.00,0.0,WeatherDisplay:10.37,2013-09-22 00:40:00,
2013-09-21 20:45:00,78.2,72.6,29.74,SW,218,9.2,9.2,83,0.00,OVC,,0.00,0.0,WeatherDisplay:10.37,2013-09-22 00:45:00,
2013-09-21 20:50:00,78.2,72.6,29.74,SSE,156,5.8,5.8,83,0.00,OVC,,0.00,0.0,WeatherDisplay:10.37,2013-09-22 00:50:00,
2013-09-21 20:55:00,78.2,72.6,29.74,South,179,6.0,6.0,83,0.00,OVC,,0.00,0.0,WeatherDisplay:10.37,2013-09-22 00:55:00,
2013-09-21 21:00:00,78.2,72.6,29.74,SE,145,10.4,10.4,83,0.00,OVC,,0.00,0.0,WeatherDisplay:10.37,2013-09-22 01:00:00,
2013-09-21 21:05:00,78.2,72.6,29.74,South,188,8.1,8.1,83,0.00,OVC,,0.00,0.0,WeatherDisplay:10.37,2013-09-22 01:05:00,
2013-09-21 21:10:00,78.2,72.6,29.74,SSW,199,11.5,11.5,83,0.00,OVC,,0.00,0.0,WeatherDisplay:10.37,2013-09-22 01:10:00,
2013-09-21 21:15:00,78.2,72.6,29.74,South,170,9.2,9.2,83,0.00,OVC,,0.00,0.0,WeatherDisplay:10.37,2013-09-22 01:15:00,
2013-09-21 21:20:00,78.2,72.6,29.74,South,183,1.2,1.2,83,0.00,OVC,,0.00,0.0,WeatherDisplay:10.37,2013-09-22 01:20:00,
2013-09-21 21:25:00,78.2,72.6,29.74,South,176,4.6,4.7,83,0.00,OVC,,0.00,0.0,WeatherDisplay:10.37,2013-09-22 01:25:00,
2013-09-21 21:30:00,78.2,72.3,29.75,SSW,197,9.2,9.2,82,0.00,OVC,,0.00,0.0,WeatherDisplay:10.37,2013-09-22 01:30:00,
2013-09-21 21:35:00,78.3,72.7,29.74,SSE,152,6.9,6.9,83,0.00,OVC,,0.00,0.0,WeatherDisplay:10.37,2013-09-22 01:35:00,
2013-09-21 21:40:00,78.3,72.7,29.74,SSE,166,8.1,8.1,83,0.00,OVC,,0.00,0.0,WeatherDisplay:10.37,2013-09-22 01:40:00,
2013-09-21 21:45:00,78.3,72.3,29.74,SSE,149,4.6,4.6,82,0.00,OVC,,0.00,0.0,WeatherDisplay:10.37,2013-09-22 01:45:00,
2013-09-21 21:50:00,78.4,72.8,29.74,SSE,159,9.2,9.2,83,0.00,OVC,,0.00,0.0,WeatherDisplay:10.37,2013-09-22 01:50:00,
2013-09-21 21:55:00,78.4,72.8,29.74,SSE,149,6.0,6.0,83,0.00,OVC,,0.00,0.0,WeatherDisplay:10.37,2013-09-22 01:55:00,
2013-09-21 22:00:00,78.4,72.8,29.74,South,191,3.5,3.5,83,0.00,OVC,,0.00,0.0,WeatherDisplay:10.37,2013-09-22 02:00:00,
2013-09-21 22:05:00,78.4,72.8,29.74,South,174,2.3,2.3,83,0.00,OVC,,0.00,0.0,WeatherDisplay:10.37,2013-09-22 02:05:00,
2013-09-21 22:10:00,78.3,72.7,29.74,South,188,3.5,3.5,83,0.00,OVC,,0.00,0.0,WeatherDisplay:10.37,2013-09-22 02:10:00,
2013-09-21 22:15:00,78.3,72.7,29.74,SE,131,5.8,5.8,83,0.00,OVC,,0.00,0.0,WeatherDisplay:10.37,2013-09-22 02:15:00,
2013-09-21 22:20:00,78.2,72.6,29.74,SSE,162,3.5,3.5,83,0.00,OVC,,0.00,0.0,WeatherDisplay:10.37,2013-09-22 02:20:00,
2013-09-21 22:25:00,78.2,72.6,29.74,SSW,194,3.5,3.5,83,0.00,OVC,,0.00,0.0,WeatherDisplay:10.37,2013-09-22 02:25:00,
2013-09-21 22:30:00,78.2,72.6,29.74,SSW,199,13.8,13.8,83,0.00,OVC,,0.00,0.0,WeatherDisplay:10.37,2013-09-22 02:30:00,
2013-09-21 22:35:00,78.2,72.6,29.74,South,180,5.8,5.8,83,0.00,OVC,,0.00,0.0,WeatherDisplay:10.37,2013-09-22 02:35:00,
2013-09-21 22:40:00,78.2,73.0,29.73,South,176,3.5,3.5,84,0.00,OVC,,0.00,0.0,WeatherDisplay:10.37,2013-09-22 02:40:00,
2013-09-21 22:45:00,78.2,73.0,29.73,SSE,162,3.5,3.5,84,0.00,OVC,,0.00,0.0,WeatherDisplay:10.37,2013-09-22 02:45:00,
2013-09-21 22:50:00,78.3,73.1,29.73,South,174,6.9,6.9,84,0.00,OVC,,0.00,0.0,WeatherDisplay:10.37,2013-09-22 02:50:00,
2013-09-21 22:55:00,78.4,73.2,29.73,SSE,164,3.5,3.5,84,0.00,OVC,,0.00,0.0,WeatherDisplay:10.37,2013-09-22 02:55:00,
2013-09-21 23:00:00,78.4,73.2,29.73,SE,137,6.9,6.9,84,0.00,OVC,,0.00,0.0,WeatherDisplay:10.37,2013-09-22 03:00:00,
2013-09-21 23:05:00,78.4,73.2,29.73,South,181,6.9,6.9,84,0.00,OVC,,0.00,0.0,WeatherDisplay:10.37,2013-09-22 03:05:00,
2013-09-21 23:10:00,78.4,73.2,29.73,South,185,2.3,2.3,84,0.00,OVC,,0.00,0.0,WeatherDisplay:10.37,2013-09-22 03:10:00,
2013-09-21 23:15:00,78.4,73.2,29.73,SW,233,10.4,10.4,84,0.00,OVC,,0.00,0.0,WeatherDisplay:10.37,2013-09-22 03:15:00,
2013-09-21 23:20:00,78.4,73.2,29.73,South,172,8.1,8.1,84,0.00,OVC,,0.00,0.0,WeatherDisplay:10.37,2013-09-22 03:20:00,
2013-09-21 23:25:00,78.4,73.2,29.72,South,191,4.6,4.6,84,0.00,OVC,,0.00,0.0,WeatherDisplay:10.37,2013-09-22 03:25:00,
2013-09-21 23:30:00,78.4,73.2,29.72,South,170,2.3,2.3,84,0.00,OVC,,0.00,0.0,WeatherDisplay:10.37,2013-09-22 03:30:00,
2013-09-21 23:35:00,78.4,73.2,29.72,SSE,164,2.3,2.5,84,0.00,OVC,,0.00,0.0,WeatherDisplay:10.37,2013-09-22 03:35:00,
2013-09-21 23:40:00,78.4,73.2,29.72,NW,314,1.2,1.2,84,0.00,OVC,,0.00,0.0,WeatherDisplay:10.37,2013-09-22 03:40:00,
2013-09-21 23:45:00,78.4,73.2,29.72,South,184,8.1,8.1,84,0.00,OVC,,0.00,0.0,WeatherDisplay:10.37,2013-09-22 03:45:00,
2013-09-21 23:50:00,78.4,73.2,29.71,SSE,153,10.4,10.4,84,0.00,OVC,,0.00,0.0,WeatherDisplay:10.37,2013-09-22 03:50:00,
2013-09-21 23:55:00,78.4,73.2,29.71,South,182,2.3,2.3,84,0.00,OVC,,0.00,0.0,WeatherDisplay:10.37,2013-09-22 03:55:00,